ESK2G1 LPPT-UGKO
Flight info
| Callsign | ESK2G1 |
|---|---|
| Flight time | N/A |
| Altitude | 33000 |
| Route | LPPT/02 N0445F330 ESP6N ESP UM744 LASIB M744 MGA DCT AMR DCT CHE UG26 ALR UA411 KEMIR DCT TUC DCT BABLO DCT LORNO UA145 TRL DCT KEA UR20 IMR UT54 SIV UW706 TBN UN37 SARPI DCT TUZZA TUZA1A UGKO/07 |
| Aircraft | B738/M-V/N |
Departure
| Time | N/A |
|---|---|
| Airport | Lisbon Humberto Delgado Airport (LPPT) |
Arrival
| Time | 2026-04-18 04:21 |
|---|---|
| Airport | David the Builder Kutaisi International Airport (UGKO) |
| Time | Latitude | Longitude | Altitude | Speed | Heading |
|---|---|---|---|---|---|
| 2026-04-17 22:40 | 37.94102 | -6.91658 | 32276 ft | 453 kts | 121° |
| 2026-04-17 22:40 | 37.92577 | -6.88166 | 32516 ft | 453 kts | 121° |
| 2026-04-17 22:40 | 37.91052 | -6.84676 | 32748 ft | 453 kts | 121° |
| 2026-04-17 22:40 | 37.89526 | -6.81191 | 32983 ft | 452 kts | 121° |
| 2026-04-17 22:41 | 37.87998 | -6.77705 | 33119 ft | 454 kts | 121° |
| 2026-04-17 22:41 | 37.86462 | -6.74205 | 33098 ft | 456 kts | 121° |
| 2026-04-17 22:41 | 37.83383 | -6.67199 | 33096 ft | 454 kts | 121° |
| 2026-04-17 22:42 | 37.80330 | -6.60267 | 33115 ft | 450 kts | 121° |
| 2026-04-17 22:42 | 37.77290 | -6.53379 | 33110 ft | 448 kts | 121° |
| 2026-04-17 22:43 | 37.74256 | -6.46519 | 33109 ft | 446 kts | 121° |
| 2026-04-17 22:43 | 37.71244 | -6.39723 | 33106 ft | 447 kts | 121° |
| 2026-04-17 22:44 | 37.68206 | -6.32881 | 33110 ft | 447 kts | 121° |
| 2026-04-17 22:44 | 37.65150 | -6.26021 | 33102 ft | 449 kts | 121° |
| 2026-04-17 22:45 | 37.62075 | -6.19144 | 33104 ft | 451 kts | 121° |
| 2026-04-17 22:45 | 37.58986 | -6.12246 | 33102 ft | 453 kts | 121° |
| 2026-04-17 22:46 | 37.55882 | -6.05325 | 33100 ft | 454 kts | 121° |
| 2026-04-17 22:46 | 37.52768 | -5.98396 | 33100 ft | 455 kts | 121° |
| 2026-04-17 22:47 | 37.49650 | -5.91472 | 33100 ft | 455 kts | 121° |
| 2026-04-17 22:47 | 37.46528 | -5.84553 | 33098 ft | 454 kts | 121° |
| 2026-04-17 22:48 | 37.43407 | -5.77650 | 33104 ft | 453 kts | 121° |
| 2026-04-17 22:48 | 37.40302 | -5.70760 | 33099 ft | 452 kts | 120° |
| 2026-04-17 22:49 | 37.37215 | -5.63867 | 33097 ft | 451 kts | 120° |
| 2026-04-17 22:49 | 37.34136 | -5.57004 | 33099 ft | 450 kts | 120° |
| 2026-04-17 22:50 | 37.31055 | -5.50156 | 33102 ft | 450 kts | 120° |
| 2026-04-17 22:50 | 37.27978 | -5.43335 | 33103 ft | 449 kts | 120° |
| 2026-04-17 22:51 | 37.24913 | -5.36555 | 33103 ft | 449 kts | 120° |
| 2026-04-17 22:51 | 37.21830 | -5.29749 | 33110 ft | 448 kts | 120° |
| 2026-04-17 22:52 | 37.18745 | -5.22952 | 33118 ft | 449 kts | 120° |
| 2026-04-17 22:52 | 37.15653 | -5.16153 | 33124 ft | 449 kts | 120° |
| 2026-04-17 22:53 | 37.12551 | -5.09347 | 33132 ft | 450 kts | 121° |
| 2026-04-17 22:53 | 37.09444 | -5.02543 | 33145 ft | 450 kts | 121° |
| 2026-04-17 22:54 | 37.06322 | -4.95719 | 33149 ft | 451 kts | 121° |
| 2026-04-17 22:54 | 37.03284 | -4.88839 | 33156 ft | 452 kts | 118° |
| 2026-04-17 22:55 | 37.00389 | -4.81849 | 33164 ft | 453 kts | 118° |
| 2026-04-17 22:55 | 36.97482 | -4.74855 | 33167 ft | 453 kts | 118° |
| 2026-04-17 22:56 | 36.94549 | -4.67881 | 33183 ft | 453 kts | 118° |
| 2026-04-17 22:56 | 36.91605 | -4.60913 | 33171 ft | 454 kts | 118° |
| 2026-04-17 22:57 | 36.88655 | -4.53955 | 33184 ft | 453 kts | 118° |
| 2026-04-17 22:57 | 36.85725 | -4.47053 | 33185 ft | 453 kts | 118° |
| 2026-04-17 22:58 | 36.82868 | -4.40058 | 33170 ft | 452 kts | 111° |
| 2026-04-17 22:58 | 36.81462 | -4.32455 | 33178 ft | 451 kts | 93° |
| 2026-04-17 22:59 | 36.81522 | -4.24635 | 33182 ft | 450 kts | 88° |
| 2026-04-17 22:59 | 36.81720 | -4.16832 | 33187 ft | 450 kts | 88° |
| 2026-04-17 23:00 | 36.81882 | -4.09029 | 33190 ft | 450 kts | 89° |
| 2026-04-17 23:00 | 36.82010 | -4.01229 | 33186 ft | 450 kts | 89° |
| 2026-04-17 23:01 | 36.82122 | -3.93425 | 33189 ft | 450 kts | 89° |
| 2026-04-17 23:01 | 36.82228 | -3.85611 | 33186 ft | 450 kts | 89° |
| 2026-04-17 23:02 | 36.82330 | -3.77792 | 33189 ft | 451 kts | 89° |
| 2026-04-17 23:02 | 36.82428 | -3.69967 | 33188 ft | 451 kts | 89° |
| 2026-04-17 23:03 | 36.82521 | -3.62183 | 33187 ft | 452 kts | 89° |
| 2026-04-17 23:03 | 36.82609 | -3.54341 | 33195 ft | 452 kts | 89° |
| 2026-04-17 23:04 | 36.82692 | -3.46493 | 33189 ft | 452 kts | 89° |
| 2026-04-17 23:04 | 36.82770 | -3.38643 | 33200 ft | 452 kts | 89° |
| 2026-04-17 23:05 | 36.82842 | -3.30791 | 33196 ft | 452 kts | 89° |
| 2026-04-17 23:05 | 36.82909 | -3.22943 | 33194 ft | 452 kts | 89° |
| 2026-04-17 23:06 | 36.82971 | -3.15110 | 33196 ft | 451 kts | 89° |
| 2026-04-17 23:06 | 36.83028 | -3.07285 | 33196 ft | 450 kts | 89° |
| 2026-04-17 23:07 | 36.83081 | -2.99471 | 33205 ft | 449 kts | 89° |
| 2026-04-17 23:07 | 36.83128 | -2.91668 | 33188 ft | 449 kts | 89° |
| 2026-04-17 23:08 | 36.83167 | -2.84104 | 33187 ft | 449 kts | 89° |
| 2026-04-17 23:08 | 36.83197 | -2.77623 | 33179 ft | 449 kts | 89° |
| 2026-04-17 23:09 | 36.83234 | -2.68568 | 33175 ft | 449 kts | 89° |
| 2026-04-17 23:09 | 36.83260 | -2.60773 | 33165 ft | 449 kts | 89° |
| 2026-04-17 23:10 | 36.83282 | -2.52982 | 33163 ft | 449 kts | 89° |
| 2026-04-17 23:10 | 36.83296 | -2.46445 | 33165 ft | 450 kts | 89° |
| 2026-04-17 23:11 | 36.83308 | -2.38685 | 33158 ft | 450 kts | 89° |
| 2026-04-17 23:11 | 36.83315 | -2.30851 | 33156 ft | 451 kts | 89° |
| 2026-04-17 23:12 | 36.83288 | -2.23019 | 33158 ft | 452 kts | 90° |
| 2026-04-17 23:12 | 36.83031 | -2.15177 | 33163 ft | 452 kts | 91° |
| 2026-04-17 23:13 | 36.82711 | -2.07329 | 33160 ft | 453 kts | 91° |
| 2026-04-17 23:13 | 36.82409 | -1.99478 | 33164 ft | 453 kts | 91° |
| 2026-04-17 23:14 | 36.82121 | -1.91628 | 33163 ft | 453 kts | 91° |
| 2026-04-17 23:14 | 36.81834 | -1.83775 | 33162 ft | 453 kts | 91° |
| 2026-04-17 23:15 | 36.81544 | -1.75926 | 33157 ft | 453 kts | 91° |
| 2026-04-17 23:15 | 36.81250 | -1.68134 | 33157 ft | 453 kts | 91° |
| 2026-04-17 23:16 | 36.80948 | -1.60294 | 33159 ft | 452 kts | 91° |
| 2026-04-17 23:16 | 36.80641 | -1.52454 | 33160 ft | 452 kts | 91° |
| 2026-04-17 23:17 | 36.80329 | -1.44618 | 33158 ft | 452 kts | 91° |
| 2026-04-17 23:17 | 36.80012 | -1.36783 | 33158 ft | 452 kts | 91° |
| 2026-04-17 23:18 | 36.79690 | -1.28946 | 33156 ft | 452 kts | 91° |
| 2026-04-17 23:18 | 36.79363 | -1.21120 | 33157 ft | 452 kts | 91° |
| 2026-04-17 23:19 | 36.79031 | -1.13284 | 33152 ft | 452 kts | 91° |
| 2026-04-17 23:19 | 36.78693 | -1.05455 | 33152 ft | 452 kts | 91° |
| 2026-04-17 23:20 | 36.78350 | -0.97614 | 33153 ft | 452 kts | 91° |
| 2026-04-17 23:20 | 36.78003 | -0.89786 | 33152 ft | 453 kts | 91° |
| 2026-04-17 23:21 | 36.77651 | -0.81991 | 33149 ft | 453 kts | 91° |
| 2026-04-17 23:21 | 36.77293 | -0.74146 | 33150 ft | 453 kts | 91° |
| 2026-04-17 23:22 | 36.76929 | -0.66302 | 33149 ft | 453 kts | 91° |
| 2026-04-17 23:22 | 36.76560 | -0.58453 | 33152 ft | 453 kts | 91° |
| 2026-04-17 23:23 | 36.76185 | -0.50605 | 33145 ft | 454 kts | 91° |
| 2026-04-17 23:23 | 36.75805 | -0.42744 | 33147 ft | 454 kts | 91° |
| 2026-04-17 23:24 | 36.75420 | -0.34891 | 33147 ft | 454 kts | 92° |
| 2026-04-17 23:24 | 36.75030 | -0.27039 | 33147 ft | 454 kts | 92° |
| 2026-04-17 23:25 | 36.74634 | -0.19186 | 33147 ft | 454 kts | 92° |
| 2026-04-17 23:25 | 36.74234 | -0.11335 | 33145 ft | 454 kts | 92° |
| 2026-04-17 23:26 | 36.73828 | -0.03486 | 33150 ft | 454 kts | 92° |
| 2026-04-17 23:26 | 36.73421 | 0.04308 | 33156 ft | 453 kts | 94° |
| 2026-04-17 23:27 | 36.73005 | 0.12146 | 33154 ft | 453 kts | 94° |
| 2026-04-17 23:27 | 36.72584 | 0.19980 | 33143 ft | 453 kts | 94° |
| 2026-04-17 23:28 | 36.72160 | 0.27804 | 33141 ft | 453 kts | 94° |
| 2026-04-17 23:28 | 36.71729 | 0.35631 | 33147 ft | 452 kts | 94° |
| 2026-04-17 23:29 | 36.71294 | 0.43450 | 33140 ft | 452 kts | 94° |
| 2026-04-17 23:29 | 36.70853 | 0.51269 | 33147 ft | 452 kts | 93° |
| 2026-04-17 23:30 | 36.70408 | 0.59078 | 33145 ft | 452 kts | 93° |
| 2026-04-17 23:30 | 36.69958 | 0.66887 | 33146 ft | 451 kts | 93° |
| 2026-04-17 23:31 | 36.69503 | 0.74696 | 33144 ft | 451 kts | 93° |
| 2026-04-17 23:31 | 36.69046 | 0.82445 | 33143 ft | 451 kts | 93° |
| 2026-04-17 23:32 | 36.68582 | 0.90236 | 33139 ft | 451 kts | 93° |
| 2026-04-17 23:32 | 36.68110 | 0.98074 | 33145 ft | 451 kts | 93° |
| 2026-04-17 23:33 | 36.67635 | 1.05854 | 33144 ft | 450 kts | 93° |
| 2026-04-17 23:33 | 36.67159 | 1.13582 | 33143 ft | 450 kts | 93° |
| 2026-04-17 23:34 | 36.66676 | 1.21345 | 33151 ft | 450 kts | 93° |
| 2026-04-17 23:34 | 36.66188 | 1.29109 | 33151 ft | 449 kts | 93° |
| 2026-04-17 23:35 | 36.65696 | 1.36862 | 33150 ft | 449 kts | 93° |
| 2026-04-17 23:35 | 36.65198 | 1.44608 | 33152 ft | 448 kts | 93° |
| 2026-04-17 23:36 | 36.64696 | 1.52348 | 33155 ft | 448 kts | 93° |
| 2026-04-17 23:36 | 36.64190 | 1.60078 | 33156 ft | 448 kts | 93° |
| 2026-04-17 23:37 | 36.63679 | 1.67804 | 33156 ft | 447 kts | 93° |
| 2026-04-17 23:37 | 36.63163 | 1.75517 | 33162 ft | 447 kts | 93° |
| 2026-04-17 23:38 | 36.62643 | 1.83228 | 33163 ft | 447 kts | 93° |
| 2026-04-17 23:38 | 36.62122 | 1.90884 | 33159 ft | 447 kts | 93° |
| 2026-04-17 23:39 | 36.61593 | 1.98583 | 33164 ft | 447 kts | 93° |
| 2026-04-17 23:39 | 36.61058 | 2.06288 | 33166 ft | 446 kts | 93° |
| 2026-04-17 23:40 | 36.60519 | 2.13991 | 33169 ft | 446 kts | 93° |
| 2026-04-17 23:40 | 36.60257 | 2.21686 | 33162 ft | 444 kts | 83° |
| 2026-04-17 23:41 | 36.60960 | 2.29306 | 33169 ft | 443 kts | 81° |
| 2026-04-17 23:41 | 36.61717 | 2.36924 | 33173 ft | 444 kts | 81° |
| 2026-04-17 23:42 | 36.62434 | 2.44564 | 33163 ft | 444 kts | 81° |
| 2026-04-17 23:42 | 36.63122 | 2.52201 | 33168 ft | 444 kts | 82° |
| 2026-04-17 23:43 | 36.63799 | 2.59837 | 33169 ft | 444 kts | 81° |
| 2026-04-17 23:43 | 36.64471 | 2.67471 | 33170 ft | 443 kts | 81° |
| 2026-04-17 23:44 | 36.65140 | 2.75105 | 33173 ft | 443 kts | 81° |
| 2026-04-17 23:44 | 36.65800 | 2.82698 | 33169 ft | 443 kts | 81° |
| 2026-04-17 23:45 | 36.66785 | 2.94145 | 33183 ft | 443 kts | 81° |
| 2026-04-17 23:46 | 36.67436 | 3.01771 | 33181 ft | 443 kts | 81° |
| 2026-04-17 23:46 | 36.68081 | 3.09392 | 33186 ft | 442 kts | 81° |
| 2026-04-17 23:47 | 36.68721 | 3.17003 | 33188 ft | 442 kts | 81° |
| 2026-04-17 23:47 | 36.68895 | 3.24660 | 33181 ft | 445 kts | 94° |
| 2026-04-17 23:48 | 36.68047 | 3.32307 | 33188 ft | 446 kts | 95° |
| 2026-04-17 23:48 | 36.67176 | 3.39950 | 33186 ft | 445 kts | 95° |
| 2026-04-17 23:49 | 36.66358 | 3.47594 | 33183 ft | 445 kts | 94° |
| 2026-04-17 23:49 | 36.65547 | 3.55249 | 33185 ft | 445 kts | 94° |
| 2026-04-17 23:50 | 36.65198 | 3.62889 | 33194 ft | 440 kts | 84° |
| 2026-04-17 23:50 | 36.65595 | 3.70445 | 33196 ft | 440 kts | 83° |
| 2026-04-17 23:51 | 36.66020 | 3.78046 | 33196 ft | 440 kts | 83° |
| 2026-04-17 23:51 | 36.66407 | 3.85646 | 33200 ft | 440 kts | 83° |
| 2026-04-17 23:52 | 36.66768 | 3.93252 | 33194 ft | 440 kts | 83° |
| 2026-04-17 23:52 | 36.67120 | 4.00878 | 33195 ft | 441 kts | 83° |
| 2026-04-17 23:53 | 36.67466 | 4.08501 | 33187 ft | 441 kts | 83° |
| 2026-04-17 23:53 | 36.67809 | 4.16130 | 33205 ft | 441 kts | 83° |
| 2026-04-17 23:54 | 36.68148 | 4.23767 | 33199 ft | 441 kts | 83° |
| 2026-04-17 23:54 | 36.68481 | 4.31404 | 33191 ft | 441 kts | 83° |
| 2026-04-17 23:55 | 36.68807 | 4.38986 | 33189 ft | 441 kts | 83° |
| 2026-04-17 23:55 | 36.69131 | 4.46614 | 33200 ft | 440 kts | 83° |
| 2026-04-17 23:56 | 36.69449 | 4.54230 | 33196 ft | 440 kts | 83° |
| 2026-04-17 23:56 | 36.69761 | 4.61829 | 33210 ft | 439 kts | 83° |
| 2026-04-17 23:57 | 36.70069 | 4.69426 | 33220 ft | 439 kts | 83° |
| 2026-04-17 23:57 | 36.70372 | 4.77025 | 33186 ft | 439 kts | 83° |
| 2026-04-17 23:58 | 36.70669 | 4.84614 | 33194 ft | 438 kts | 83° |
| 2026-04-17 23:58 | 36.70963 | 4.92195 | 33178 ft | 438 kts | 83° |
| 2026-04-17 23:59 | 36.71202 | 4.98495 | 33187 ft | 437 kts | 83° |
| 2026-04-17 23:59 | 36.71485 | 5.06057 | 33192 ft | 437 kts | 83° |
| 2026-04-18 00:00 | 36.72196 | 5.14776 | 33192 ft | 434 kts | 78° |
| 2026-04-18 00:00 | 36.72895 | 5.20969 | 33187 ft | 434 kts | 78° |
| 2026-04-18 00:01 | 36.73721 | 5.28427 | 33192 ft | 434 kts | 78° |
| 2026-04-18 00:01 | 36.74512 | 5.35893 | 33194 ft | 435 kts | 78° |
| 2026-04-18 00:02 | 36.75287 | 5.43379 | 33194 ft | 435 kts | 78° |
| 2026-04-18 00:02 | 36.76055 | 5.50859 | 33197 ft | 435 kts | 78° |
| 2026-04-18 00:03 | 36.76819 | 5.58343 | 33194 ft | 435 kts | 78° |
| 2026-04-18 00:03 | 36.77582 | 5.65847 | 33190 ft | 436 kts | 79° |
| 2026-04-18 00:04 | 36.78339 | 5.73353 | 33181 ft | 436 kts | 78° |
| 2026-04-18 00:04 | 36.79092 | 5.80851 | 33184 ft | 436 kts | 79° |
| 2026-04-18 00:05 | 36.79806 | 5.88308 | 33189 ft | 437 kts | 82° |
| 2026-04-18 00:05 | 36.80071 | 5.95894 | 33192 ft | 438 kts | 84° |
| 2026-04-18 00:06 | 36.80208 | 6.03496 | 33187 ft | 438 kts | 84° |
| 2026-04-18 00:06 | 36.80354 | 6.11091 | 33190 ft | 438 kts | 84° |
| 2026-04-18 00:07 | 36.80525 | 6.18682 | 33196 ft | 438 kts | 84° |
| 2026-04-18 00:07 | 36.80703 | 6.26270 | 33201 ft | 437 kts | 84° |
| 2026-04-18 00:08 | 36.80875 | 6.33853 | 33207 ft | 437 kts | 84° |
| 2026-04-18 00:08 | 36.81042 | 6.41436 | 33197 ft | 437 kts | 84° |
| 2026-04-18 00:09 | 36.81203 | 6.49001 | 33205 ft | 436 kts | 84° |
| 2026-04-18 00:09 | 36.81359 | 6.56570 | 33214 ft | 436 kts | 84° |
| 2026-04-18 00:10 | 36.81510 | 6.64147 | 33210 ft | 436 kts | 84° |
| 2026-04-18 00:10 | 36.81657 | 6.71721 | 33207 ft | 437 kts | 84° |
| 2026-04-18 00:11 | 36.81798 | 6.79251 | 33200 ft | 437 kts | 84° |
| 2026-04-18 00:11 | 36.81936 | 6.86833 | 33210 ft | 437 kts | 84° |
| 2026-04-18 00:12 | 36.82069 | 6.94430 | 33205 ft | 438 kts | 84° |
| 2026-04-18 00:12 | 36.82197 | 7.02030 | 33205 ft | 437 kts | 85° |
| 2026-04-18 00:13 | 36.82320 | 7.09626 | 33201 ft | 438 kts | 85° |
| 2026-04-18 00:13 | 36.82438 | 7.17223 | 33198 ft | 438 kts | 85° |
| 2026-04-18 00:14 | 36.82551 | 7.24829 | 33203 ft | 438 kts | 85° |
| 2026-04-18 00:14 | 36.82660 | 7.32431 | 33192 ft | 438 kts | 85° |
| 2026-04-18 00:15 | 36.82763 | 7.40026 | 33198 ft | 438 kts | 85° |
| 2026-04-18 00:15 | 36.82861 | 7.47569 | 33182 ft | 437 kts | 85° |
| 2026-04-18 00:16 | 36.82955 | 7.55156 | 33176 ft | 437 kts | 85° |
| 2026-04-18 00:16 | 36.83044 | 7.62728 | 33166 ft | 436 kts | 85° |
| 2026-04-18 00:17 | 36.83129 | 7.70303 | 33162 ft | 436 kts | 85° |
| 2026-04-18 00:17 | 36.83209 | 7.77872 | 33158 ft | 436 kts | 85° |
| 2026-04-18 00:18 | 36.83275 | 7.85445 | 33161 ft | 436 kts | 85° |
| 2026-04-18 00:18 | 36.83312 | 7.93004 | 33161 ft | 435 kts | 85° |
| 2026-04-18 00:19 | 36.83342 | 8.00562 | 33166 ft | 435 kts | 85° |
| 2026-04-18 00:19 | 36.83370 | 8.08109 | 33171 ft | 435 kts | 85° |
| 2026-04-18 00:20 | 36.83396 | 8.15654 | 33174 ft | 435 kts | 86° |
| 2026-04-18 00:20 | 36.83416 | 8.23196 | 33183 ft | 434 kts | 86° |
| 2026-04-18 00:21 | 36.83432 | 8.30738 | 33179 ft | 434 kts | 86° |
| 2026-04-18 00:21 | 36.83443 | 8.38229 | 33189 ft | 434 kts | 86° |
| 2026-04-18 00:22 | 36.83450 | 8.45775 | 33184 ft | 435 kts | 86° |
| 2026-04-18 00:22 | 36.83451 | 8.53323 | 33178 ft | 435 kts | 86° |
| 2026-04-18 00:23 | 36.83448 | 8.60864 | 33176 ft | 434 kts | 86° |
| 2026-04-18 00:23 | 36.83409 | 8.68405 | 33177 ft | 435 kts | 87° |
| 2026-04-18 00:24 | 36.83232 | 8.75967 | 33172 ft | 436 kts | 88° |
| 2026-04-18 00:24 | 36.83044 | 8.83537 | 33164 ft | 436 kts | 88° |
| 2026-04-18 00:25 | 36.82871 | 8.91108 | 33160 ft | 436 kts | 87° |
| 2026-04-18 00:25 | 36.82718 | 8.98680 | 33166 ft | 435 kts | 85° |
| 2026-04-18 00:26 | 36.82913 | 9.06211 | 33169 ft | 434 kts | 83° |
| 2026-04-18 00:26 | 36.83126 | 9.13739 | 33163 ft | 433 kts | 84° |
| 2026-04-18 00:27 | 36.83297 | 9.21250 | 33162 ft | 433 kts | 84° |
| 2026-04-18 00:27 | 36.83462 | 9.28753 | 33173 ft | 432 kts | 84° |
| 2026-04-18 00:28 | 36.83626 | 9.36252 | 33166 ft | 432 kts | 84° |
| 2026-04-18 00:28 | 36.83785 | 9.43741 | 33154 ft | 431 kts | 84° |
| 2026-04-18 00:29 | 36.83934 | 9.51215 | 33150 ft | 430 kts | 84° |
| 2026-04-18 00:29 | 36.84078 | 9.58676 | 33156 ft | 429 kts | 84° |
| 2026-04-18 00:30 | 36.84217 | 9.66078 | 33150 ft | 429 kts | 84° |
| 2026-04-18 00:30 | 36.84351 | 9.73520 | 33156 ft | 429 kts | 84° |
| 2026-04-18 00:31 | 36.84483 | 9.80963 | 33140 ft | 429 kts | 84° |
| 2026-04-18 00:31 | 36.84609 | 9.88406 | 33146 ft | 429 kts | 84° |
| 2026-04-18 00:32 | 36.84731 | 9.95848 | 33137 ft | 429 kts | 84° |
| 2026-04-18 00:32 | 36.84847 | 10.03288 | 33131 ft | 429 kts | 84° |
| 2026-04-18 00:33 | 36.84959 | 10.10734 | 33133 ft | 429 kts | 84° |
| 2026-04-18 00:33 | 36.85068 | 10.18187 | 33133 ft | 429 kts | 85° |
| 2026-04-18 00:34 | 36.85156 | 10.25646 | 33133 ft | 430 kts | 85° |
| 2026-04-18 00:34 | 36.85126 | 10.33124 | 33130 ft | 431 kts | 86° |
| 2026-04-18 00:35 | 36.85067 | 10.40607 | 33131 ft | 431 kts | 86° |
| 2026-04-18 00:35 | 36.85014 | 10.48093 | 33134 ft | 431 kts | 86° |
| 2026-04-18 00:36 | 36.84965 | 10.55582 | 33127 ft | 431 kts | 86° |
| 2026-04-18 00:36 | 36.84914 | 10.63024 | 33126 ft | 432 kts | 86° |
| 2026-04-18 00:37 | 36.84858 | 10.70526 | 33121 ft | 432 kts | 86° |
| 2026-04-18 00:37 | 36.84797 | 10.78031 | 33122 ft | 432 kts | 86° |
| 2026-04-18 00:38 | 36.84731 | 10.85543 | 33115 ft | 432 kts | 86° |
| 2026-04-18 00:38 | 36.84660 | 10.93051 | 33109 ft | 432 kts | 86° |
| 2026-04-18 00:39 | 36.84585 | 11.00554 | 33118 ft | 432 kts | 86° |
| 2026-04-18 00:39 | 36.84505 | 11.08052 | 33110 ft | 432 kts | 86° |
| 2026-04-18 00:40 | 36.84421 | 11.15501 | 33107 ft | 432 kts | 86° |
| 2026-04-18 00:40 | 36.84332 | 11.23000 | 33109 ft | 432 kts | 87° |
| 2026-04-18 00:41 | 36.84238 | 11.30496 | 33096 ft | 432 kts | 87° |
| 2026-04-18 00:41 | 36.84139 | 11.37990 | 33096 ft | 432 kts | 87° |
| 2026-04-18 00:42 | 36.84037 | 11.45487 | 33102 ft | 432 kts | 87° |
| 2026-04-18 00:42 | 36.84199 | 11.52946 | 33097 ft | 427 kts | 79° |
| 2026-04-18 00:43 | 36.84990 | 11.60290 | 33100 ft | 427 kts | 78° |
| 2026-04-18 00:43 | 36.85809 | 11.67588 | 33097 ft | 427 kts | 78° |
| 2026-04-18 00:44 | 36.86606 | 11.74942 | 33102 ft | 427 kts | 78° |
| 2026-04-18 00:44 | 36.87382 | 11.82305 | 33105 ft | 428 kts | 79° |
| 2026-04-18 00:45 | 36.88147 | 11.89674 | 33104 ft | 428 kts | 79° |
| 2026-04-18 00:45 | 36.88907 | 11.97053 | 33107 ft | 428 kts | 79° |
| 2026-04-18 00:46 | 36.89663 | 12.04426 | 33101 ft | 428 kts | 79° |
| 2026-04-18 00:46 | 36.90415 | 12.11813 | 33099 ft | 428 kts | 79° |
| 2026-04-18 00:47 | 36.91162 | 12.19191 | 33093 ft | 428 kts | 79° |
| 2026-04-18 00:47 | 36.91905 | 12.26574 | 33083 ft | 428 kts | 79° |
| 2026-04-18 00:48 | 36.92642 | 12.33943 | 33078 ft | 427 kts | 79° |
| 2026-04-18 00:48 | 36.93374 | 12.41316 | 33065 ft | 427 kts | 79° |
| 2026-04-18 00:49 | 36.94458 | 12.52314 | 33056 ft | 427 kts | 79° |
| 2026-04-18 00:49 | 36.95178 | 12.59676 | 33064 ft | 426 kts | 79° |
| 2026-04-18 00:50 | 36.95892 | 12.67034 | 33056 ft | 426 kts | 79° |
| 2026-04-18 00:50 | 36.96487 | 12.73195 | 33053 ft | 426 kts | 79° |
| 2026-04-18 00:51 | 36.97192 | 12.80541 | 33051 ft | 426 kts | 79° |
| 2026-04-18 00:51 | 36.97892 | 12.87890 | 33049 ft | 425 kts | 79° |
| 2026-04-18 00:52 | 36.98587 | 12.95230 | 33047 ft | 425 kts | 79° |
| 2026-04-18 00:52 | 36.99273 | 13.02524 | 33041 ft | 425 kts | 79° |
| 2026-04-18 00:53 | 36.99959 | 13.09870 | 33043 ft | 425 kts | 80° |
| 2026-04-18 00:53 | 37.00640 | 13.17205 | 33039 ft | 425 kts | 80° |
| 2026-04-18 00:54 | 37.01317 | 13.24549 | 33033 ft | 425 kts | 80° |
| 2026-04-18 00:54 | 37.01989 | 13.31892 | 33031 ft | 425 kts | 80° |
| 2026-04-18 00:55 | 37.02656 | 13.39232 | 33030 ft | 425 kts | 80° |
| 2026-04-18 00:55 | 37.03320 | 13.46584 | 33031 ft | 425 kts | 80° |
| 2026-04-18 00:56 | 37.03974 | 13.53887 | 33030 ft | 425 kts | 80° |
| 2026-04-18 00:56 | 37.04629 | 13.61239 | 33028 ft | 425 kts | 80° |
| 2026-04-18 00:57 | 37.05278 | 13.68592 | 33027 ft | 425 kts | 80° |
| 2026-04-18 00:57 | 37.05924 | 13.75945 | 33026 ft | 425 kts | 80° |
| 2026-04-18 00:58 | 37.06564 | 13.83302 | 33026 ft | 425 kts | 80° |
| 2026-04-18 00:58 | 37.07200 | 13.90655 | 33025 ft | 425 kts | 81° |
| 2026-04-18 00:59 | 37.07831 | 13.98008 | 33027 ft | 425 kts | 81° |
| 2026-04-18 00:59 | 37.08458 | 14.05361 | 33026 ft | 424 kts | 81° |
| 2026-04-18 01:00 | 37.09079 | 14.12708 | 33024 ft | 424 kts | 81° |
| 2026-04-18 01:00 | 37.09696 | 14.20055 | 33024 ft | 424 kts | 81° |
| 2026-04-18 01:01 | 37.10308 | 14.27397 | 33015 ft | 424 kts | 81° |
| 2026-04-18 01:01 | 37.10915 | 14.34742 | 33019 ft | 424 kts | 81° |
| 2026-04-18 01:02 | 37.11514 | 14.42040 | 33006 ft | 424 kts | 81° |
| 2026-04-18 01:02 | 37.12112 | 14.49382 | 33006 ft | 424 kts | 81° |
| 2026-04-18 01:03 | 37.12705 | 14.56728 | 32999 ft | 424 kts | 81° |
| 2026-04-18 01:03 | 37.13294 | 14.64078 | 33003 ft | 424 kts | 81° |
| 2026-04-18 01:04 | 37.13879 | 14.71431 | 32999 ft | 424 kts | 81° |
| 2026-04-18 01:04 | 37.14459 | 14.78776 | 33003 ft | 424 kts | 81° |
| 2026-04-18 01:05 | 37.15035 | 14.86134 | 33010 ft | 424 kts | 81° |
| 2026-04-18 01:05 | 37.15607 | 14.93501 | 33007 ft | 425 kts | 81° |
| 2026-04-18 01:06 | 37.16174 | 15.00868 | 33008 ft | 425 kts | 81° |
| 2026-04-18 01:06 | 37.16737 | 15.08236 | 32999 ft | 424 kts | 81° |
| 2026-04-18 01:07 | 37.17296 | 15.15609 | 32993 ft | 425 kts | 82° |
| 2026-04-18 01:07 | 37.17850 | 15.22982 | 32985 ft | 425 kts | 82° |
| 2026-04-18 01:08 | 37.18396 | 15.30312 | 32984 ft | 425 kts | 82° |
| 2026-04-18 01:08 | 37.18941 | 15.37691 | 32978 ft | 425 kts | 82° |
| 2026-04-18 01:09 | 37.19481 | 15.45062 | 32985 ft | 425 kts | 82° |
| 2026-04-18 01:09 | 37.20016 | 15.52440 | 32983 ft | 425 kts | 82° |
| 2026-04-18 01:10 | 37.20548 | 15.59826 | 32983 ft | 425 kts | 82° |
| 2026-04-18 01:10 | 37.21075 | 15.67214 | 32983 ft | 425 kts | 82° |
| 2026-04-18 01:11 | 37.21595 | 15.74562 | 32984 ft | 426 kts | 82° |
| 2026-04-18 01:11 | 37.22114 | 15.81965 | 32985 ft | 426 kts | 82° |
| 2026-04-18 01:12 | 37.22629 | 15.89376 | 32985 ft | 427 kts | 82° |
| 2026-04-18 01:12 | 37.23139 | 15.96797 | 32983 ft | 427 kts | 83° |
| 2026-04-18 01:13 | 37.23646 | 16.04233 | 32985 ft | 428 kts | 83° |
| 2026-04-18 01:13 | 37.24149 | 16.11674 | 32980 ft | 428 kts | 83° |
| 2026-04-18 01:14 | 37.24649 | 16.19136 | 32976 ft | 429 kts | 83° |
| 2026-04-18 01:14 | 37.25143 | 16.26600 | 32976 ft | 430 kts | 83° |
| 2026-04-18 01:15 | 37.25634 | 16.34080 | 32977 ft | 430 kts | 83° |
| 2026-04-18 01:15 | 37.26122 | 16.41576 | 32973 ft | 431 kts | 83° |
| 2026-04-18 01:16 | 37.26605 | 16.49078 | 32977 ft | 431 kts | 83° |
| 2026-04-18 01:16 | 37.27084 | 16.56594 | 32956 ft | 432 kts | 83° |
| 2026-04-18 01:17 | 37.27555 | 16.64069 | 32975 ft | 432 kts | 83° |
| 2026-04-18 01:17 | 37.28025 | 16.71601 | 32975 ft | 433 kts | 83° |
| 2026-04-18 01:18 | 37.28492 | 16.79142 | 32959 ft | 433 kts | 83° |
| 2026-04-18 01:18 | 37.28953 | 16.86692 | 32954 ft | 434 kts | 83° |
| 2026-04-18 01:19 | 37.29411 | 16.94252 | 32972 ft | 434 kts | 83° |
| 2026-04-18 01:19 | 37.29864 | 17.01822 | 32951 ft | 435 kts | 83° |
| 2026-04-18 01:20 | 37.30313 | 17.09396 | 32966 ft | 435 kts | 84° |
| 2026-04-18 01:20 | 37.30757 | 17.16980 | 32958 ft | 436 kts | 84° |
| 2026-04-18 01:21 | 37.31197 | 17.24569 | 32961 ft | 436 kts | 84° |
| 2026-04-18 01:21 | 37.31632 | 17.32167 | 32953 ft | 436 kts | 84° |
| 2026-04-18 01:22 | 37.32063 | 17.39773 | 32947 ft | 437 kts | 84° |
| 2026-04-18 01:22 | 37.32490 | 17.47390 | 32954 ft | 437 kts | 84° |
| 2026-04-18 01:23 | 37.32909 | 17.54966 | 32952 ft | 437 kts | 84° |
| 2026-04-18 01:23 | 37.33326 | 17.62590 | 32948 ft | 438 kts | 84° |
| 2026-04-18 01:24 | 37.33739 | 17.70230 | 32947 ft | 438 kts | 84° |
| 2026-04-18 01:24 | 37.34148 | 17.77877 | 32947 ft | 439 kts | 84° |
| 2026-04-18 01:25 | 37.34552 | 17.85537 | 32943 ft | 439 kts | 84° |
| 2026-04-18 01:25 | 37.34952 | 17.93202 | 32936 ft | 440 kts | 84° |
| 2026-04-18 01:26 | 37.35347 | 18.00878 | 32926 ft | 440 kts | 84° |
| 2026-04-18 01:26 | 37.35743 | 18.08561 | 32937 ft | 441 kts | 84° |
| 2026-04-18 01:27 | 37.36131 | 18.16268 | 32927 ft | 442 kts | 84° |
| 2026-04-18 01:27 | 37.36509 | 18.23986 | 32930 ft | 442 kts | 84° |
| 2026-04-18 01:28 | 37.36883 | 18.31698 | 32925 ft | 443 kts | 84° |
| 2026-04-18 01:28 | 37.37257 | 18.39432 | 32928 ft | 443 kts | 84° |
| 2026-04-18 01:29 | 37.37626 | 18.47128 | 32915 ft | 444 kts | 84° |
| 2026-04-18 01:29 | 37.37989 | 18.54874 | 32914 ft | 444 kts | 84° |
| 2026-04-18 01:30 | 37.38347 | 18.62633 | 32919 ft | 444 kts | 84° |
| 2026-04-18 01:30 | 37.38700 | 18.70404 | 32913 ft | 445 kts | 84° |
| 2026-04-18 01:31 | 37.39047 | 18.78174 | 32916 ft | 445 kts | 84° |
| 2026-04-18 01:31 | 37.39392 | 18.85945 | 32907 ft | 445 kts | 84° |
| 2026-04-18 01:32 | 37.39731 | 18.93681 | 32900 ft | 446 kts | 84° |
| 2026-04-18 01:32 | 37.40058 | 19.01471 | 32892 ft | 446 kts | 85° |
| 2026-04-18 01:33 | 37.40205 | 19.09278 | 32902 ft | 446 kts | 87° |
| 2026-04-18 01:33 | 37.40280 | 19.17086 | 32896 ft | 447 kts | 87° |
| 2026-04-18 01:34 | 37.40361 | 19.24904 | 32893 ft | 447 kts | 87° |
| 2026-04-18 01:34 | 37.40453 | 19.32713 | 32892 ft | 447 kts | 87° |
| 2026-04-18 01:35 | 37.40548 | 19.40523 | 32885 ft | 447 kts | 87° |
| 2026-04-18 01:35 | 37.40640 | 19.48332 | 32879 ft | 447 kts | 87° |
| 2026-04-18 01:36 | 37.40724 | 19.56145 | 32874 ft | 447 kts | 87° |
| 2026-04-18 01:36 | 37.40803 | 19.63951 | 32877 ft | 446 kts | 87° |
| 2026-04-18 01:37 | 37.40878 | 19.71704 | 32877 ft | 446 kts | 87° |
| 2026-04-18 01:37 | 37.40945 | 19.79505 | 32869 ft | 446 kts | 88° |
| 2026-04-18 01:38 | 37.41006 | 19.87305 | 32868 ft | 446 kts | 88° |
| 2026-04-18 01:38 | 37.41063 | 19.95106 | 32863 ft | 446 kts | 88° |
| 2026-04-18 01:39 | 37.41116 | 20.02900 | 32861 ft | 445 kts | 88° |
| 2026-04-18 01:39 | 37.41165 | 20.10693 | 32858 ft | 445 kts | 88° |
| 2026-04-18 01:40 | 37.41208 | 20.18473 | 32854 ft | 445 kts | 88° |
| 2026-04-18 01:40 | 37.41240 | 20.24935 | 32852 ft | 444 kts | 88° |
| 2026-04-18 01:41 | 37.41274 | 20.32712 | 32852 ft | 444 kts | 88° |
| 2026-04-18 01:41 | 37.41302 | 20.40481 | 32851 ft | 444 kts | 88° |
| 2026-04-18 01:42 | 37.41326 | 20.48244 | 32847 ft | 444 kts | 88° |
| 2026-04-18 01:42 | 37.41345 | 20.56002 | 32845 ft | 443 kts | 88° |
| 2026-04-18 01:43 | 37.41358 | 20.63752 | 32846 ft | 443 kts | 88° |
| 2026-04-18 01:43 | 37.41367 | 20.71504 | 32841 ft | 443 kts | 88° |
| 2026-04-18 01:44 | 37.41370 | 20.79258 | 32841 ft | 443 kts | 88° |
| 2026-04-18 01:44 | 37.41369 | 20.86969 | 32841 ft | 443 kts | 89° |
| 2026-04-18 01:45 | 37.41363 | 20.94725 | 32838 ft | 443 kts | 89° |
| 2026-04-18 01:45 | 37.41352 | 21.02466 | 32840 ft | 443 kts | 89° |
| 2026-04-18 01:46 | 37.41338 | 21.10213 | 32835 ft | 443 kts | 89° |
| 2026-04-18 01:46 | 37.41319 | 21.17951 | 32838 ft | 442 kts | 89° |
| 2026-04-18 01:47 | 37.41296 | 21.25689 | 32831 ft | 442 kts | 89° |
| 2026-04-18 01:47 | 37.41267 | 21.33424 | 32832 ft | 442 kts | 89° |
| 2026-04-18 01:48 | 37.41233 | 21.41153 | 32843 ft | 442 kts | 89° |
| 2026-04-18 01:48 | 37.41195 | 21.48875 | 32840 ft | 441 kts | 89° |
| 2026-04-18 01:49 | 37.41152 | 21.56592 | 32843 ft | 441 kts | 89° |
| 2026-04-18 01:49 | 37.41104 | 21.64254 | 32850 ft | 441 kts | 89° |
| 2026-04-18 01:50 | 37.41053 | 21.71960 | 32852 ft | 440 kts | 89° |
| 2026-04-18 01:50 | 37.40998 | 21.79664 | 32857 ft | 440 kts | 89° |
| 2026-04-18 01:51 | 37.40939 | 21.87366 | 32862 ft | 440 kts | 89° |
| 2026-04-18 01:51 | 37.40875 | 21.95060 | 32864 ft | 440 kts | 89° |
| 2026-04-18 01:52 | 37.40806 | 22.02752 | 32866 ft | 440 kts | 89° |
| 2026-04-18 01:52 | 37.40732 | 22.10445 | 32877 ft | 440 kts | 89° |
| 2026-04-18 01:53 | 37.40654 | 22.18143 | 32881 ft | 440 kts | 89° |
| 2026-04-18 01:54 | 37.40460 | 22.29688 | 32884 ft | 440 kts | 90° |
| 2026-04-18 01:54 | 37.40540 | 22.37364 | 32883 ft | 438 kts | 83° |
| 2026-04-18 01:55 | 37.41202 | 22.44930 | 32871 ft | 438 kts | 81° |
| 2026-04-18 01:55 | 37.41927 | 22.52546 | 32878 ft | 439 kts | 81° |
| 2026-04-18 01:56 | 37.42610 | 22.60176 | 32871 ft | 439 kts | 82° |
| 2026-04-18 01:56 | 37.43261 | 22.67822 | 32864 ft | 440 kts | 82° |
| 2026-04-18 01:57 | 37.43900 | 22.75473 | 32853 ft | 439 kts | 82° |
| 2026-04-18 01:57 | 37.44531 | 22.83115 | 32855 ft | 439 kts | 82° |
| 2026-04-18 01:58 | 37.45159 | 22.90760 | 32851 ft | 439 kts | 82° |
| 2026-04-18 01:58 | 37.45782 | 22.98400 | 32847 ft | 439 kts | 82° |
| 2026-04-18 01:59 | 37.46400 | 23.06046 | 32844 ft | 439 kts | 82° |
| 2026-04-18 01:59 | 37.47014 | 23.13693 | 32838 ft | 439 kts | 82° |
| 2026-04-18 02:00 | 37.47622 | 23.21343 | 32844 ft | 439 kts | 83° |
| 2026-04-18 02:00 | 37.48228 | 23.29003 | 32842 ft | 440 kts | 83° |
| 2026-04-18 02:01 | 37.48832 | 23.36678 | 32832 ft | 441 kts | 82° |
| 2026-04-18 02:01 | 37.49429 | 23.44368 | 32831 ft | 442 kts | 83° |
| 2026-04-18 02:02 | 37.50021 | 23.52074 | 32828 ft | 442 kts | 82° |
| 2026-04-18 02:02 | 37.50608 | 23.59790 | 32841 ft | 442 kts | 83° |
| 2026-04-18 02:03 | 37.51188 | 23.67460 | 32831 ft | 443 kts | 83° |
| 2026-04-18 02:03 | 37.51768 | 23.75193 | 32810 ft | 444 kts | 83° |
| 2026-04-18 02:04 | 37.52343 | 23.82927 | 32827 ft | 444 kts | 82° |
| 2026-04-18 02:04 | 37.52912 | 23.90666 | 32829 ft | 444 kts | 83° |
| 2026-04-18 02:05 | 37.53478 | 23.98411 | 32839 ft | 443 kts | 83° |
| 2026-04-18 02:05 | 37.54038 | 24.06153 | 32816 ft | 443 kts | 83° |
| 2026-04-18 02:06 | 37.54592 | 24.13891 | 32811 ft | 443 kts | 83° |
| 2026-04-18 02:06 | 37.55139 | 24.21613 | 32816 ft | 442 kts | 83° |
| 2026-04-18 02:07 | 37.55744 | 24.29269 | 32801 ft | 440 kts | 77° |
| 2026-04-18 02:07 | 37.57501 | 24.36582 | 32811 ft | 435 kts | 67° |
| 2026-04-18 02:08 | 37.59609 | 24.43735 | 32800 ft | 435 kts | 66° |
| 2026-04-18 02:08 | 37.61687 | 24.50891 | 32799 ft | 434 kts | 67° |
| 2026-04-18 02:09 | 37.63732 | 24.58068 | 32800 ft | 434 kts | 67° |
| 2026-04-18 02:09 | 37.65758 | 24.65247 | 32786 ft | 434 kts | 67° |
| 2026-04-18 02:10 | 37.67775 | 24.72421 | 32789 ft | 434 kts | 67° |
| 2026-04-18 02:10 | 37.69789 | 24.79594 | 32782 ft | 433 kts | 67° |
| 2026-04-18 02:11 | 37.71799 | 24.86772 | 32779 ft | 433 kts | 67° |
| 2026-04-18 02:11 | 37.73800 | 24.93945 | 32781 ft | 433 kts | 67° |
| 2026-04-18 02:12 | 37.75796 | 25.01123 | 32762 ft | 433 kts | 67° |
| 2026-04-18 02:12 | 37.77790 | 25.08300 | 32767 ft | 433 kts | 68° |
| 2026-04-18 02:13 | 37.79778 | 25.15481 | 32766 ft | 433 kts | 68° |
| 2026-04-18 02:13 | 37.81750 | 25.22630 | 32780 ft | 433 kts | 68° |
| 2026-04-18 02:14 | 37.83734 | 25.29836 | 32757 ft | 434 kts | 68° |
| 2026-04-18 02:14 | 37.85717 | 25.37058 | 32759 ft | 434 kts | 68° |
| 2026-04-18 02:15 | 37.87696 | 25.44288 | 32755 ft | 435 kts | 68° |
| 2026-04-18 02:15 | 37.89670 | 25.51527 | 32752 ft | 435 kts | 68° |
| 2026-04-18 02:16 | 37.91639 | 25.58770 | 32753 ft | 435 kts | 68° |
| 2026-04-18 02:16 | 37.93604 | 25.66015 | 32747 ft | 435 kts | 68° |
| 2026-04-18 02:17 | 37.95563 | 25.73252 | 32740 ft | 434 kts | 68° |
| 2026-04-18 02:17 | 37.97517 | 25.80488 | 32741 ft | 433 kts | 68° |
| 2026-04-18 02:18 | 37.99461 | 25.87707 | 32740 ft | 432 kts | 68° |
| 2026-04-18 02:18 | 38.01399 | 25.94926 | 32739 ft | 432 kts | 68° |
| 2026-04-18 02:19 | 38.03316 | 26.02088 | 32739 ft | 431 kts | 68° |
| 2026-04-18 02:19 | 38.05238 | 26.09285 | 32736 ft | 431 kts | 69° |
| 2026-04-18 02:20 | 38.07154 | 26.16485 | 32733 ft | 430 kts | 69° |
| 2026-04-18 02:20 | 38.09066 | 26.23685 | 32732 ft | 430 kts | 69° |
| 2026-04-18 02:21 | 38.10976 | 26.30885 | 32729 ft | 430 kts | 68° |
| 2026-04-18 02:21 | 38.13066 | 26.37991 | 32730 ft | 429 kts | 66° |
| 2026-04-18 02:22 | 38.15234 | 26.45069 | 32728 ft | 429 kts | 66° |
| 2026-04-18 02:22 | 38.17377 | 26.52153 | 32728 ft | 430 kts | 66° |
| 2026-04-18 02:23 | 38.19497 | 26.59251 | 32729 ft | 430 kts | 66° |
| 2026-04-18 02:23 | 38.21607 | 26.66352 | 32735 ft | 429 kts | 66° |
| 2026-04-18 02:24 | 38.23710 | 26.73449 | 32722 ft | 429 kts | 66° |
| 2026-04-18 02:24 | 38.25794 | 26.80495 | 32721 ft | 428 kts | 66° |
| 2026-04-18 02:25 | 38.27884 | 26.87582 | 32728 ft | 427 kts | 66° |
| 2026-04-18 02:25 | 38.29967 | 26.94660 | 32724 ft | 426 kts | 66° |
| 2026-04-18 02:26 | 38.31956 | 27.01777 | 32712 ft | 428 kts | 73° |
| 2026-04-18 02:26 | 38.33122 | 27.09215 | 32720 ft | 428 kts | 77° |
| 2026-04-18 02:27 | 38.34010 | 27.15410 | 32723 ft | 427 kts | 77° |
| 2026-04-18 02:27 | 38.35294 | 27.24090 | 32725 ft | 426 kts | 76° |
| 2026-04-18 02:28 | 38.36221 | 27.30247 | 32727 ft | 425 kts | 76° |
| 2026-04-18 02:28 | 38.37334 | 27.37655 | 32719 ft | 425 kts | 76° |
| 2026-04-18 02:29 | 38.38617 | 27.46247 | 32735 ft | 425 kts | 76° |
| 2026-04-18 02:29 | 38.39542 | 27.52449 | 32722 ft | 425 kts | 76° |
| 2026-04-18 02:30 | 38.40644 | 27.59861 | 32733 ft | 426 kts | 76° |
| 2026-04-18 02:30 | 38.41745 | 27.67297 | 32727 ft | 427 kts | 76° |
| 2026-04-18 02:31 | 38.42842 | 27.74749 | 32735 ft | 428 kts | 76° |
| 2026-04-18 02:31 | 38.43936 | 27.82214 | 32733 ft | 428 kts | 76° |
| 2026-04-18 02:32 | 38.45018 | 27.89635 | 32733 ft | 429 kts | 76° |
| 2026-04-18 02:32 | 38.46103 | 27.97110 | 32737 ft | 428 kts | 76° |
| 2026-04-18 02:33 | 38.47181 | 28.04571 | 32734 ft | 427 kts | 76° |
| 2026-04-18 02:33 | 38.48253 | 28.12020 | 32732 ft | 426 kts | 76° |
| 2026-04-18 02:34 | 38.49319 | 28.19463 | 32730 ft | 425 kts | 76° |
| 2026-04-18 02:34 | 38.50411 | 28.26865 | 32729 ft | 422 kts | 73° |
| 2026-04-18 02:35 | 38.51927 | 28.34088 | 32740 ft | 420 kts | 70° |
| 2026-04-18 02:35 | 38.53519 | 28.41250 | 32735 ft | 419 kts | 71° |
| 2026-04-18 02:36 | 38.55070 | 28.48424 | 32738 ft | 419 kts | 71° |
| 2026-04-18 02:36 | 38.56588 | 28.55562 | 32731 ft | 419 kts | 71° |
| 2026-04-18 02:37 | 38.58106 | 28.62748 | 32730 ft | 419 kts | 72° |
| 2026-04-18 02:37 | 38.59046 | 28.70142 | 32735 ft | 423 kts | 79° |
| 2026-04-18 02:38 | 38.59734 | 28.77610 | 32727 ft | 423 kts | 79° |
| 2026-04-18 02:38 | 38.60453 | 28.85087 | 32725 ft | 423 kts | 79° |
| 2026-04-18 02:39 | 38.61201 | 28.92562 | 32727 ft | 424 kts | 79° |
| 2026-04-18 02:39 | 38.61954 | 29.00049 | 32719 ft | 425 kts | 79° |
| 2026-04-18 02:40 | 38.62701 | 29.07544 | 32719 ft | 425 kts | 79° |
| 2026-04-18 02:40 | 38.63443 | 29.15038 | 32709 ft | 425 kts | 79° |
| 2026-04-18 02:41 | 38.64181 | 29.22544 | 32714 ft | 425 kts | 79° |
| 2026-04-18 02:41 | 38.64914 | 29.30043 | 32701 ft | 425 kts | 79° |
| 2026-04-18 02:42 | 38.65641 | 29.37539 | 32709 ft | 424 kts | 79° |
| 2026-04-18 02:42 | 38.66360 | 29.44978 | 32706 ft | 424 kts | 80° |
| 2026-04-18 02:43 | 38.67176 | 29.52444 | 32711 ft | 423 kts | 77° |
| 2026-04-18 02:43 | 38.68159 | 29.59864 | 32711 ft | 423 kts | 77° |
| 2026-04-18 02:44 | 38.69132 | 29.67285 | 32715 ft | 423 kts | 78° |
| 2026-04-18 02:44 | 38.70077 | 29.74716 | 32720 ft | 423 kts | 78° |
| 2026-04-18 02:45 | 38.71010 | 29.82154 | 32726 ft | 423 kts | 78° |
| 2026-04-18 02:45 | 38.71939 | 29.89600 | 32733 ft | 424 kts | 78° |
| 2026-04-18 02:46 | 38.72866 | 29.97056 | 32724 ft | 424 kts | 79° |
| 2026-04-18 02:46 | 38.73812 | 30.04508 | 32740 ft | 424 kts | 78° |
| 2026-04-18 02:47 | 38.74811 | 30.11953 | 32733 ft | 424 kts | 78° |
| 2026-04-18 02:47 | 38.75808 | 30.19406 | 32737 ft | 425 kts | 79° |
| 2026-04-18 02:48 | 38.76794 | 30.26867 | 32743 ft | 425 kts | 79° |
| 2026-04-18 02:48 | 38.77766 | 30.34287 | 32741 ft | 425 kts | 79° |
| 2026-04-18 02:49 | 38.78747 | 30.41807 | 32728 ft | 425 kts | 79° |
| 2026-04-18 02:49 | 38.79712 | 30.49241 | 32733 ft | 426 kts | 80° |
| 2026-04-18 02:50 | 38.80980 | 30.56637 | 32726 ft | 425 kts | 68° |
| 2026-04-18 02:50 | 38.83289 | 30.63604 | 32734 ft | 425 kts | 66° |
| 2026-04-18 02:51 | 38.85672 | 30.70553 | 32732 ft | 426 kts | 66° |
| 2026-04-18 02:51 | 38.88021 | 30.77530 | 32741 ft | 426 kts | 67° |
| 2026-04-18 02:52 | 38.90351 | 30.84541 | 32744 ft | 427 kts | 67° |
| 2026-04-18 02:52 | 38.92674 | 30.91570 | 32739 ft | 428 kts | 67° |
| 2026-04-18 02:53 | 38.94998 | 30.98619 | 32746 ft | 429 kts | 68° |
| 2026-04-18 02:53 | 38.97319 | 31.05679 | 32741 ft | 429 kts | 68° |
| 2026-04-18 02:54 | 38.99642 | 31.12758 | 32748 ft | 430 kts | 68° |
| 2026-04-18 02:54 | 39.01963 | 31.19847 | 32740 ft | 431 kts | 68° |
| 2026-04-18 02:55 | 39.04284 | 31.26954 | 32762 ft | 431 kts | 68° |
| 2026-04-18 02:55 | 39.06603 | 31.34076 | 32745 ft | 432 kts | 68° |
| 2026-04-18 02:56 | 39.08918 | 31.41208 | 32735 ft | 432 kts | 68° |
| 2026-04-18 02:56 | 39.12371 | 31.51875 | 32748 ft | 432 kts | 69° |
| 2026-04-18 02:57 | 39.14696 | 31.59078 | 32744 ft | 433 kts | 69° |
| 2026-04-18 02:57 | 39.16986 | 31.66190 | 32740 ft | 433 kts | 69° |
| 2026-04-18 02:58 | 39.19287 | 31.73357 | 32747 ft | 432 kts | 69° |
| 2026-04-18 02:58 | 39.21583 | 31.80523 | 32741 ft | 432 kts | 69° |
| 2026-04-18 02:59 | 39.23871 | 31.87692 | 32742 ft | 432 kts | 69° |
| 2026-04-18 02:59 | 39.26150 | 31.94855 | 32744 ft | 431 kts | 69° |
| 2026-04-18 03:00 | 39.28424 | 32.02021 | 32746 ft | 431 kts | 69° |
| 2026-04-18 03:00 | 39.30691 | 32.09184 | 32742 ft | 430 kts | 69° |
| 2026-04-18 03:01 | 39.32949 | 32.16336 | 32747 ft | 430 kts | 70° |
| 2026-04-18 03:01 | 39.35202 | 32.23492 | 32749 ft | 430 kts | 70° |
| 2026-04-18 03:02 | 39.37438 | 32.30611 | 32746 ft | 430 kts | 70° |
| 2026-04-18 03:02 | 39.39680 | 32.37789 | 32749 ft | 431 kts | 70° |
| 2026-04-18 03:03 | 39.41867 | 32.45006 | 32748 ft | 431 kts | 70° |
| 2026-04-18 03:03 | 39.43863 | 32.52311 | 32738 ft | 430 kts | 80° |
| 2026-04-18 03:04 | 39.44727 | 32.59932 | 32743 ft | 428 kts | 84° |
| 2026-04-18 03:04 | 39.45477 | 32.67581 | 32743 ft | 429 kts | 84° |
| 2026-04-18 03:05 | 39.46273 | 32.75235 | 32757 ft | 430 kts | 84° |
| 2026-04-18 03:05 | 39.47090 | 32.82902 | 32764 ft | 430 kts | 84° |
| 2026-04-18 03:06 | 39.47901 | 32.90571 | 32753 ft | 430 kts | 85° |
| 2026-04-18 03:06 | 39.48715 | 32.98246 | 32763 ft | 430 kts | 85° |
| 2026-04-18 03:07 | 39.49527 | 33.05917 | 32760 ft | 430 kts | 85° |
| 2026-04-18 03:07 | 39.50334 | 33.13585 | 32767 ft | 430 kts | 86° |
| 2026-04-18 03:08 | 39.51136 | 33.21255 | 32763 ft | 429 kts | 86° |
| 2026-04-18 03:08 | 39.51929 | 33.28915 | 32761 ft | 429 kts | 86° |
| 2026-04-18 03:09 | 39.52710 | 33.36573 | 32764 ft | 428 kts | 86° |
| 2026-04-18 03:09 | 39.53483 | 33.44206 | 32766 ft | 427 kts | 86° |
| 2026-04-18 03:10 | 39.54245 | 33.51775 | 32769 ft | 426 kts | 87° |
| 2026-04-18 03:10 | 39.55008 | 33.59394 | 32760 ft | 426 kts | 87° |
| 2026-04-18 03:11 | 39.55764 | 33.66994 | 32769 ft | 425 kts | 87° |
| 2026-04-18 03:11 | 39.56515 | 33.74591 | 32761 ft | 425 kts | 87° |
| 2026-04-18 03:12 | 39.57261 | 33.82186 | 32764 ft | 425 kts | 87° |
| 2026-04-18 03:12 | 39.58003 | 33.89781 | 32758 ft | 425 kts | 87° |
| 2026-04-18 03:13 | 39.58739 | 33.97376 | 32761 ft | 425 kts | 87° |
| 2026-04-18 03:13 | 39.59471 | 34.04980 | 32756 ft | 425 kts | 87° |
| 2026-04-18 03:14 | 39.60199 | 34.12596 | 32754 ft | 425 kts | 87° |
| 2026-04-18 03:14 | 39.60922 | 34.20218 | 32747 ft | 426 kts | 87° |
| 2026-04-18 03:15 | 39.61638 | 34.27811 | 32746 ft | 427 kts | 87° |
| 2026-04-18 03:15 | 39.62356 | 34.35474 | 32745 ft | 428 kts | 87° |
| 2026-04-18 03:16 | 39.62948 | 34.41845 | 32749 ft | 429 kts | 88° |
| 2026-04-18 03:16 | 39.63657 | 34.49534 | 32749 ft | 430 kts | 88° |
| 2026-04-18 03:17 | 39.64363 | 34.57249 | 32744 ft | 431 kts | 88° |
| 2026-04-18 03:17 | 39.65067 | 34.64996 | 32750 ft | 432 kts | 88° |
| 2026-04-18 03:18 | 39.65768 | 34.72758 | 32751 ft | 434 kts | 88° |
| 2026-04-18 03:18 | 39.66465 | 34.80542 | 32754 ft | 435 kts | 89° |
| 2026-04-18 03:19 | 39.67160 | 34.88354 | 32740 ft | 436 kts | 89° |
| 2026-04-18 03:19 | 39.67851 | 34.96194 | 32740 ft | 437 kts | 89° |
| 2026-04-18 03:20 | 39.68538 | 35.04037 | 32744 ft | 438 kts | 90° |
| 2026-04-18 03:20 | 39.69221 | 35.11901 | 32740 ft | 438 kts | 90° |
| 2026-04-18 03:21 | 39.69894 | 35.19711 | 32745 ft | 438 kts | 90° |
| 2026-04-18 03:21 | 39.70566 | 35.27568 | 32743 ft | 438 kts | 90° |
| 2026-04-18 03:22 | 39.71231 | 35.35423 | 32738 ft | 437 kts | 91° |
| 2026-04-18 03:22 | 39.71892 | 35.43276 | 32736 ft | 437 kts | 91° |
| 2026-04-18 03:23 | 39.72547 | 35.51122 | 32740 ft | 437 kts | 91° |
| 2026-04-18 03:23 | 39.73196 | 35.58969 | 32740 ft | 436 kts | 92° |
| 2026-04-18 03:24 | 39.73834 | 35.66803 | 32762 ft | 436 kts | 92° |
| 2026-04-18 03:24 | 39.74467 | 35.74650 | 32763 ft | 437 kts | 92° |
| 2026-04-18 03:25 | 39.75097 | 35.82521 | 32757 ft | 438 kts | 92° |
| 2026-04-18 03:25 | 39.75719 | 35.90345 | 32778 ft | 439 kts | 93° |
| 2026-04-18 03:26 | 39.76341 | 35.98238 | 32776 ft | 440 kts | 93° |
| 2026-04-18 03:26 | 39.76959 | 36.06165 | 32787 ft | 442 kts | 93° |
| 2026-04-18 03:27 | 39.77576 | 36.14133 | 32783 ft | 444 kts | 94° |
| 2026-04-18 03:27 | 39.78191 | 36.22127 | 32776 ft | 445 kts | 94° |
| 2026-04-18 03:28 | 39.78534 | 36.30106 | 32791 ft | 439 kts | 99° |
| 2026-04-18 03:28 | 39.78569 | 36.38047 | 32784 ft | 439 kts | 99° |
| 2026-04-18 03:29 | 39.78602 | 36.46000 | 32801 ft | 441 kts | 99° |
| 2026-04-18 03:29 | 39.78667 | 36.53981 | 32816 ft | 442 kts | 99° |
| 2026-04-18 03:30 | 39.78740 | 36.61969 | 32845 ft | 442 kts | 99° |
| 2026-04-18 03:30 | 39.78807 | 36.69969 | 32850 ft | 442 kts | 99° |
| 2026-04-18 03:31 | 39.78869 | 36.77971 | 32873 ft | 442 kts | 99° |
| 2026-04-18 03:31 | 39.79029 | 36.85923 | 32868 ft | 450 kts | 92° |
| 2026-04-18 03:32 | 39.79660 | 36.89958 | 32884 ft | 461 kts | 82° |
| 2026-04-18 03:32 | 39.80794 | 36.93906 | 32877 ft | 473 kts | 71° |
| 2026-04-18 03:32 | 39.84018 | 37.01432 | 32880 ft | 478 kts | 66° |
| 2026-04-18 03:33 | 39.87383 | 37.08892 | 32867 ft | 478 kts | 67° |
| 2026-04-18 03:33 | 39.90689 | 37.16406 | 32850 ft | 478 kts | 67° |
| 2026-04-18 03:34 | 39.93946 | 37.23946 | 32818 ft | 477 kts | 68° |
| 2026-04-18 03:34 | 39.97192 | 37.31503 | 32800 ft | 478 kts | 68° |
| 2026-04-18 03:35 | 40.00440 | 37.39073 | 32789 ft | 478 kts | 67° |
| 2026-04-18 03:35 | 40.03658 | 37.46587 | 32792 ft | 477 kts | 67° |
| 2026-04-18 03:36 | 40.06890 | 37.54150 | 32792 ft | 477 kts | 67° |
| 2026-04-18 03:36 | 40.10119 | 37.61709 | 32794 ft | 477 kts | 67° |
| 2026-04-18 03:37 | 40.13351 | 37.69247 | 32793 ft | 475 kts | 67° |
| 2026-04-18 03:37 | 40.16578 | 37.76792 | 32790 ft | 476 kts | 67° |
| 2026-04-18 03:38 | 40.19805 | 37.84363 | 32798 ft | 476 kts | 67° |
| 2026-04-18 03:38 | 40.23022 | 37.91930 | 32799 ft | 475 kts | 67° |
| 2026-04-18 03:39 | 40.26228 | 37.99491 | 32803 ft | 476 kts | 67° |
| 2026-04-18 03:39 | 40.29437 | 38.07080 | 32811 ft | 477 kts | 67° |
| 2026-04-18 03:40 | 40.32645 | 38.14679 | 32829 ft | 476 kts | 67° |
| 2026-04-18 03:40 | 40.35747 | 38.22340 | 32826 ft | 475 kts | 69° |
| 2026-04-18 03:41 | 40.38812 | 38.30020 | 32813 ft | 475 kts | 67° |
| 2026-04-18 03:41 | 40.42058 | 38.37555 | 32800 ft | 474 kts | 65° |
| 2026-04-18 03:42 | 40.45313 | 38.45001 | 32812 ft | 473 kts | 65° |
| 2026-04-18 03:42 | 40.48535 | 38.52496 | 32835 ft | 470 kts | 66° |
| 2026-04-18 03:43 | 40.51718 | 38.59984 | 32821 ft | 468 kts | 66° |
| 2026-04-18 03:43 | 40.54788 | 38.67504 | 32819 ft | 467 kts | 67° |
| 2026-04-18 03:44 | 40.57838 | 38.75035 | 32826 ft | 466 kts | 67° |
| 2026-04-18 03:44 | 40.60898 | 38.82566 | 32813 ft | 467 kts | 66° |
| 2026-04-18 03:45 | 40.63967 | 38.90123 | 32815 ft | 469 kts | 66° |
| 2026-04-18 03:45 | 40.67034 | 38.97721 | 32796 ft | 469 kts | 67° |
| 2026-04-18 03:46 | 40.70091 | 39.05328 | 32797 ft | 470 kts | 67° |
| 2026-04-18 03:46 | 40.73153 | 39.12968 | 32791 ft | 472 kts | 67° |
| 2026-04-18 03:47 | 40.76207 | 39.20603 | 32773 ft | 475 kts | 67° |
| 2026-04-18 03:47 | 40.79281 | 39.28306 | 32774 ft | 475 kts | 67° |
| 2026-04-18 03:48 | 40.82353 | 39.36024 | 32774 ft | 475 kts | 66° |
| 2026-04-18 03:48 | 40.85414 | 39.43736 | 32784 ft | 473 kts | 66° |
| 2026-04-18 03:49 | 40.88461 | 39.51432 | 32787 ft | 471 kts | 66° |
| 2026-04-18 03:49 | 40.91474 | 39.59057 | 32747 ft | 458 kts | 66° |
| 2026-04-18 03:50 | 40.94376 | 39.66422 | 32774 ft | 449 kts | 66° |
| 2026-04-18 03:50 | 40.97252 | 39.73753 | 32431 ft | 449 kts | 66° |
| 2026-04-18 03:51 | 40.98681 | 39.77395 | 32125 ft | 443 kts | 66° |
| 2026-04-18 03:51 | 41.00084 | 39.81010 | 31800 ft | 438 kts | 68° |
| 2026-04-18 03:51 | 41.01372 | 39.84615 | 31566 ft | 431 kts | 69° |
| 2026-04-18 03:51 | 41.02598 | 39.88230 | 31202 ft | 428 kts | 70° |
| 2026-04-18 03:52 | 41.03798 | 39.91821 | 30860 ft | 425 kts | 70° |
| 2026-04-18 03:52 | 41.04996 | 39.95387 | 30509 ft | 422 kts | 69° |
| 2026-04-18 03:52 | 41.06194 | 39.98926 | 30161 ft | 420 kts | 69° |
| 2026-04-18 03:52 | 41.07393 | 40.02442 | 29806 ft | 417 kts | 69° |
| 2026-04-18 03:53 | 41.08586 | 40.05935 | 29406 ft | 415 kts | 69° |
| 2026-04-18 03:53 | 41.09774 | 40.09409 | 29017 ft | 412 kts | 68° |
| 2026-04-18 03:53 | 41.10953 | 40.12860 | 28654 ft | 409 kts | 68° |
| 2026-04-18 03:53 | 41.12123 | 40.16292 | 28274 ft | 407 kts | 68° |
| 2026-04-18 03:54 | 41.13266 | 40.19652 | 27944 ft | 404 kts | 68° |
| 2026-04-18 03:54 | 41.14414 | 40.23033 | 27679 ft | 399 kts | 68° |
| 2026-04-18 03:54 | 41.15543 | 40.26367 | 27415 ft | 395 kts | 68° |
| 2026-04-18 03:54 | 41.16668 | 40.29694 | 27162 ft | 396 kts | 68° |
| 2026-04-18 03:55 | 41.17793 | 40.33024 | 26897 ft | 394 kts | 68° |
| 2026-04-18 03:55 | 41.18910 | 40.36331 | 26550 ft | 391 kts | 68° |
| 2026-04-18 03:55 | 41.20015 | 40.39608 | 26288 ft | 386 kts | 68° |
| 2026-04-18 03:55 | 41.21105 | 40.42839 | 26026 ft | 381 kts | 68° |
| 2026-04-18 03:56 | 41.22183 | 40.46036 | 25717 ft | 379 kts | 68° |
| 2026-04-18 03:56 | 41.23256 | 40.49225 | 25384 ft | 377 kts | 68° |
| 2026-04-18 03:56 | 41.24322 | 40.52394 | 25060 ft | 375 kts | 68° |
| 2026-04-18 03:56 | 41.25385 | 40.55559 | 24729 ft | 375 kts | 68° |
| 2026-04-18 03:57 | 41.27502 | 40.61878 | 24038 ft | 373 kts | 68° |
| 2026-04-18 03:57 | 41.28554 | 40.65021 | 23694 ft | 372 kts | 68° |
| 2026-04-18 03:57 | 41.29605 | 40.68165 | 23356 ft | 371 kts | 68° |
| 2026-04-18 03:58 | 41.30649 | 40.71291 | 22961 ft | 369 kts | 68° |
| 2026-04-18 03:58 | 41.31687 | 40.74404 | 22587 ft | 367 kts | 68° |
| 2026-04-18 03:58 | 41.32719 | 40.77501 | 22234 ft | 365 kts | 68° |
| 2026-04-18 03:58 | 41.33743 | 40.80580 | 21889 ft | 363 kts | 68° |
| 2026-04-18 03:59 | 41.34762 | 40.83644 | 21546 ft | 360 kts | 68° |
| 2026-04-18 03:59 | 41.35771 | 40.86685 | 21208 ft | 358 kts | 68° |
| 2026-04-18 03:59 | 41.36774 | 40.89709 | 20870 ft | 356 kts | 68° |
| 2026-04-18 03:59 | 41.37770 | 40.92715 | 20541 ft | 354 kts | 68° |
| 2026-04-18 04:00 | 41.38759 | 40.95705 | 20211 ft | 352 kts | 68° |
| 2026-04-18 04:00 | 41.39743 | 40.98683 | 19889 ft | 351 kts | 68° |
| 2026-04-18 04:00 | 41.40726 | 41.01660 | 19557 ft | 351 kts | 68° |
| 2026-04-18 04:00 | 41.41707 | 41.04634 | 19216 ft | 350 kts | 68° |
| 2026-04-18 04:01 | 41.42685 | 41.07601 | 18880 ft | 349 kts | 68° |
| 2026-04-18 04:01 | 41.43660 | 41.10564 | 18552 ft | 348 kts | 68° |
| 2026-04-18 04:01 | 41.44632 | 41.13520 | 18246 ft | 347 kts | 68° |
| 2026-04-18 04:01 | 41.45589 | 41.16444 | 17997 ft | 343 kts | 68° |
| 2026-04-18 04:02 | 41.46542 | 41.19356 | 17652 ft | 342 kts | 69° |
| 2026-04-18 04:02 | 41.47475 | 41.22213 | 17327 ft | 340 kts | 69° |
| 2026-04-18 04:02 | 41.48416 | 41.25095 | 17001 ft | 338 kts | 69° |
| 2026-04-18 04:02 | 41.49352 | 41.27963 | 16672 ft | 337 kts | 69° |
| 2026-04-18 04:03 | 41.50284 | 41.30819 | 16348 ft | 335 kts | 69° |
| 2026-04-18 04:03 | 41.51212 | 41.33664 | 16027 ft | 334 kts | 69° |
| 2026-04-18 04:03 | 41.52137 | 41.36501 | 15711 ft | 332 kts | 69° |
| 2026-04-18 04:03 | 41.53056 | 41.39323 | 15391 ft | 331 kts | 69° |
| 2026-04-18 04:04 | 41.53969 | 41.42137 | 15065 ft | 330 kts | 69° |
| 2026-04-18 04:04 | 41.54941 | 41.44909 | 14749 ft | 330 kts | 61° |
| 2026-04-18 04:04 | 41.56351 | 41.47312 | 14506 ft | 328 kts | 49° |
| 2026-04-18 04:04 | 41.57895 | 41.49544 | 14198 ft | 327 kts | 48° |
| 2026-04-18 04:05 | 41.58946 | 41.51035 | 13995 ft | 326 kts | 47° |
| 2026-04-18 04:05 | 41.60496 | 41.53237 | 13683 ft | 325 kts | 48° |
| 2026-04-18 04:05 | 41.62037 | 41.55440 | 13340 ft | 324 kts | 48° |
| 2026-04-18 04:05 | 41.63545 | 41.57612 | 13004 ft | 322 kts | 48° |
| 2026-04-18 04:06 | 41.65059 | 41.59807 | 12677 ft | 320 kts | 48° |
| 2026-04-18 04:06 | 41.66561 | 41.61992 | 12364 ft | 318 kts | 48° |
| 2026-04-18 04:06 | 41.68053 | 41.64169 | 12053 ft | 316 kts | 48° |
| 2026-04-18 04:06 | 41.69532 | 41.66330 | 11742 ft | 314 kts | 48° |
| 2026-04-18 04:07 | 41.71000 | 41.68480 | 11436 ft | 312 kts | 48° |
| 2026-04-18 04:07 | 41.72458 | 41.70617 | 11129 ft | 310 kts | 48° |
| 2026-04-18 04:07 | 41.73908 | 41.72743 | 10817 ft | 308 kts | 48° |
| 2026-04-18 04:07 | 41.75347 | 41.74855 | 10520 ft | 307 kts | 48° |
| 2026-04-18 04:08 | 41.76781 | 41.76963 | 10210 ft | 306 kts | 48° |
| 2026-04-18 04:08 | 41.78210 | 41.79060 | 9951 ft | 303 kts | 48° |
| 2026-04-18 04:08 | 41.79618 | 41.81130 | 9766 ft | 297 kts | 48° |
| 2026-04-18 04:08 | 41.81011 | 41.83183 | 9449 ft | 297 kts | 49° |
| 2026-04-18 04:09 | 41.82399 | 41.85228 | 9129 ft | 296 kts | 49° |
| 2026-04-18 04:09 | 41.83782 | 41.87264 | 8886 ft | 293 kts | 49° |
| 2026-04-18 04:09 | 41.85138 | 41.89265 | 8697 ft | 287 kts | 49° |
| 2026-04-18 04:09 | 41.86479 | 41.91243 | 8419 ft | 286 kts | 49° |
| 2026-04-18 04:10 | 41.87825 | 41.93202 | 8116 ft | 285 kts | 45° |
| 2026-04-18 04:10 | 41.89407 | 41.94768 | 7929 ft | 282 kts | 32° |
| 2026-04-18 04:10 | 41.91117 | 41.96065 | 7641 ft | 282 kts | 30° |
| 2026-04-18 04:10 | 41.92835 | 41.97347 | 7367 ft | 282 kts | 30° |
| 2026-04-18 04:11 | 41.94541 | 41.98649 | 7085 ft | 283 kts | 31° |
| 2026-04-18 04:11 | 41.96245 | 41.99969 | 6817 ft | 283 kts | 31° |
| 2026-04-18 04:11 | 41.97951 | 42.01307 | 6520 ft | 284 kts | 32° |
| 2026-04-18 04:11 | 41.99660 | 42.02649 | 6225 ft | 285 kts | 32° |
| 2026-04-18 04:12 | 42.01374 | 42.03999 | 5894 ft | 285 kts | 32° |
| 2026-04-18 04:12 | 42.03061 | 42.05328 | 5739 ft | 272 kts | 32° |
| 2026-04-18 04:12 | 42.04637 | 42.06572 | 5603 ft | 254 kts | 32° |
| 2026-04-18 04:12 | 42.06126 | 42.07744 | 5448 ft | 240 kts | 32° |
| 2026-04-18 04:13 | 42.07503 | 42.08836 | 5295 ft | 225 kts | 32° |
| 2026-04-18 04:13 | 42.08798 | 42.09863 | 5238 ft | 208 kts | 33° |
| 2026-04-18 04:13 | 42.10011 | 42.10819 | 5123 ft | 197 kts | 33° |
| 2026-04-18 04:13 | 42.11182 | 42.11744 | 4840 ft | 192 kts | 33° |
| 2026-04-18 04:14 | 42.12322 | 42.12654 | 4506 ft | 190 kts | 40° |
| 2026-04-18 04:14 | 42.13026 | 42.13959 | 4395 ft | 162 kts | 82° |
| 2026-04-18 04:14 | 42.13272 | 42.15448 | 4264 ft | 167 kts | 77° |
| 2026-04-18 04:14 | 42.13628 | 42.16888 | 4245 ft | 157 kts | 77° |
| 2026-04-18 04:15 | 42.13904 | 42.18250 | 4237 ft | 152 kts | 81° |
| 2026-04-18 04:15 | 42.14123 | 42.19633 | 4024 ft | 148 kts | 82° |
| 2026-04-18 04:15 | 42.14304 | 42.20962 | 3840 ft | 141 kts | 83° |
| 2026-04-18 04:15 | 42.14470 | 42.22230 | 3667 ft | 134 kts | 83° |
| 2026-04-18 04:16 | 42.14616 | 42.23449 | 3496 ft | 128 kts | 85° |
| 2026-04-18 04:16 | 42.14766 | 42.24625 | 3318 ft | 128 kts | 82° |
| 2026-04-18 04:16 | 42.14910 | 42.25789 | 3166 ft | 128 kts | 83° |
| 2026-04-18 04:16 | 42.15054 | 42.26966 | 2996 ft | 126 kts | 83° |
| 2026-04-18 04:17 | 42.15197 | 42.28132 | 2827 ft | 125 kts | 84° |
| 2026-04-18 04:17 | 42.15336 | 42.29270 | 2648 ft | 120 kts | 82° |
| 2026-04-18 04:17 | 42.15471 | 42.30380 | 2498 ft | 121 kts | 83° |
| 2026-04-18 04:17 | 42.15608 | 42.31495 | 2340 ft | 120 kts | 83° |
| 2026-04-18 04:18 | 42.15742 | 42.32582 | 2170 ft | 116 kts | 83° |
| 2026-04-18 04:18 | 42.15874 | 42.33657 | 2016 ft | 117 kts | 83° |
| 2026-04-18 04:18 | 42.16009 | 42.34741 | 1863 ft | 116 kts | 82° |
| 2026-04-18 04:18 | 42.16136 | 42.35789 | 1710 ft | 111 kts | 83° |
| 2026-04-18 04:19 | 42.16262 | 42.36803 | 1564 ft | 111 kts | 83° |
| 2026-04-18 04:19 | 42.16392 | 42.37869 | 1396 ft | 118 kts | 82° |
| 2026-04-18 04:19 | 42.16529 | 42.38964 | 1243 ft | 119 kts | 84° |
| 2026-04-18 04:19 | 42.16664 | 42.40068 | 1096 ft | 119 kts | 82° |
| 2026-04-18 04:20 | 42.16798 | 42.41166 | 942 ft | 119 kts | 82° |
| 2026-04-18 04:20 | 42.16932 | 42.42263 | 821 ft | 120 kts | 81° |
| 2026-04-18 04:20 | 42.17072 | 42.43382 | 667 ft | 121 kts | 81° |
| 2026-04-18 04:20 | 42.17212 | 42.44499 | 529 ft | 120 kts | 82° |
| 2026-04-18 04:21 | 42.17346 | 42.45574 | 371 ft | 112 kts | 82° |
| 2026-04-18 04:21 | 42.17469 | 42.46565 | 208 ft | 103 kts | 81° |
| 2026-04-18 04:21 | 42.17577 | 42.47440 | 148 ft | 80 kts | 80° |
| 2026-04-18 04:21 | 42.17643 | 42.47971 | 149 ft | 35 kts | 81° |
| 2026-04-18 04:22 | 42.17663 | 42.48161 | 151 ft | 16 kts | 91° |
| 2026-04-18 04:22 | 42.17678 | 42.48245 | 152 ft | 1 kts | 352° |
| 2026-04-18 04:22 | 42.17680 | 42.48231 | 152 ft | 2 kts | 272° |
| 2026-04-18 04:22 | 42.17671 | 42.48175 | 151 ft | 12 kts | 258° |
| 2026-04-18 04:23 | 42.17648 | 42.48001 | 149 ft | 25 kts | 260° |
| 2026-04-18 04:23 | 42.17611 | 42.47709 | 148 ft | 38 kts | 261° |
| 2026-04-18 04:23 | 42.17565 | 42.47316 | 149 ft | 45 kts | 261° |
| 2026-04-18 04:23 | 42.17518 | 42.46935 | 150 ft | 27 kts | 261° |
| 2026-04-18 04:24 | 42.17521 | 42.46784 | 150 ft | 9 kts | 324° |
| 2026-04-18 04:24 | 42.17598 | 42.46765 | 143 ft | 15 kts | 353° |
| 2026-04-18 04:24 | 42.17722 | 42.46739 | 140 ft | 19 kts | 349° |
| 2026-04-18 04:24 | 42.17850 | 42.46695 | 140 ft | 19 kts | 331° |
| 2026-04-18 04:25 | 42.17947 | 42.46583 | 139 ft | 18 kts | 317° |
| 2026-04-18 04:25 | 42.18014 | 42.46513 | 139 ft | 6 kts | 345° |
| 2026-04-18 04:25 | 42.18029 | 42.46529 | 139 ft | 3 kts | 63° |
| 2026-04-18 04:25 | 42.18038 | 42.46558 | 139 ft | 4 kts | 68° |
| 2026-04-18 04:26 | 42.18042 | 42.46572 | 139 ft | 0 kts | 69° |